createdAt,value
2018-12-21T00:00:20.471Z,0.00
2018-12-21T00:01:20.450Z,0.00
2018-12-21T00:02:20.419Z,0.00
2018-12-21T00:03:20.394Z,0.00
2018-12-21T00:04:20.378Z,0.00
2018-12-21T00:05:20.349Z,0.00
2018-12-21T00:06:20.327Z,0.00
2018-12-21T00:07:20.317Z,0.00
2018-12-21T00:08:20.283Z,0.00
2018-12-21T00:09:20.260Z,0.00
2018-12-21T00:10:20.241Z,0.00
2018-12-21T00:11:20.214Z,0.00
2018-12-21T00:12:20.191Z,0.00
2018-12-21T00:13:20.668Z,0.00
2018-12-21T00:14:20.156Z,0.00
2018-12-21T00:15:20.127Z,0.00
2018-12-21T00:16:20.103Z,0.00
2018-12-21T00:17:20.080Z,0.00
2018-12-21T00:18:20.061Z,0.00
2018-12-21T00:19:20.038Z,0.00
2018-12-21T00:20:20.011Z,0.00
2018-12-21T00:21:21.881Z,0.00
2018-12-21T00:22:19.966Z,0.00
2018-12-21T00:23:19.947Z,0.00
2018-12-21T00:24:19.918Z,0.00
2018-12-21T00:25:19.899Z,0.00
2018-12-21T00:26:19.877Z,0.00
2018-12-21T00:27:19.857Z,0.00
2018-12-21T00:28:19.838Z,0.00
2018-12-21T00:29:19.812Z,0.00
2018-12-21T00:30:19.792Z,0.00
2018-12-21T00:31:19.761Z,0.00
2018-12-21T00:32:19.738Z,0.00
2018-12-21T00:33:19.716Z,0.00
2018-12-21T00:34:19.693Z,0.00
2018-12-21T00:35:19.677Z,0.00
2018-12-21T00:36:19.655Z,0.00
2018-12-21T00:37:19.634Z,0.00
2018-12-21T00:38:19.759Z,0.00
2018-12-21T00:39:19.584Z,0.00
2018-12-21T00:40:19.564Z,0.00
2018-12-21T00:41:19.535Z,0.00
2018-12-21T00:42:19.514Z,0.00
2018-12-21T00:43:19.491Z,0.00
2018-12-21T00:44:19.472Z,0.00
2018-12-21T00:45:19.455Z,0.00
2018-12-21T00:46:19.431Z,0.00
2018-12-21T00:47:20.197Z,0.00
2018-12-21T00:48:20.545Z,0.00
2018-12-21T00:49:22.009Z,0.00
2018-12-21T00:50:20.468Z,0.00
2018-12-21T00:51:21.503Z,0.00
2018-12-21T00:52:23.725Z,0.00
2018-12-21T00:53:21.962Z,0.00
2018-12-21T00:54:19.244Z,0.00
2018-12-21T00:55:19.219Z,0.00
2018-12-21T00:56:19.196Z,0.00
2018-12-21T00:57:19.180Z,0.00
2018-12-21T00:58:19.161Z,0.00
2018-12-21T00:59:19.129Z,0.00
2018-12-21T01:00:19.106Z,0.00
2018-12-21T01:01:19.086Z,0.00
2018-12-21T01:02:19.065Z,0.00
2018-12-21T01:03:19.040Z,0.00
2018-12-21T01:04:19.017Z,0.00
2018-12-21T01:05:19.002Z,0.00
2018-12-21T01:06:18.971Z,0.00
2018-12-21T01:07:18.952Z,0.00
2018-12-21T01:08:18.926Z,0.00
2018-12-21T01:09:18.899Z,0.00
2018-12-21T01:10:18.884Z,0.00
2018-12-21T01:11:18.858Z,0.00
2018-12-21T01:12:18.839Z,0.00
2018-12-21T01:13:18.813Z,0.00
2018-12-21T01:14:18.796Z,0.00
2018-12-21T01:15:18.770Z,0.00
2018-12-21T01:16:18.750Z,0.00
2018-12-21T01:17:18.721Z,0.00
2018-12-21T01:18:18.699Z,0.00
2018-12-21T01:19:18.673Z,0.00
2018-12-21T01:20:18.661Z,0.00
2018-12-21T01:21:18.635Z,0.00
2018-12-21T01:22:18.606Z,0.00
2018-12-21T01:23:18.584Z,0.00
2018-12-21T01:24:18.562Z,0.00
2018-12-21T01:25:18.543Z,0.00
2018-12-21T01:26:18.518Z,0.00
2018-12-21T01:27:18.495Z,0.00
2018-12-21T01:28:18.472Z,0.00
2018-12-21T01:29:18.448Z,0.00
2018-12-21T01:30:18.426Z,0.00
2018-12-21T01:31:18.405Z,0.00
2018-12-21T01:32:18.382Z,0.00
2018-12-21T01:33:18.369Z,0.00
2018-12-21T01:34:18.335Z,0.00
2018-12-21T01:35:18.312Z,0.00
2018-12-21T01:36:18.287Z,0.00
2018-12-21T01:37:18.265Z,0.00
2018-12-21T01:38:18.249Z,0.00
2018-12-21T01:39:18.253Z,0.00
2018-12-21T01:40:18.199Z,0.00
2018-12-21T01:41:18.177Z,0.00
2018-12-21T01:42:18.154Z,0.00
2018-12-21T01:43:18.132Z,0.00
2018-12-21T01:44:18.109Z,0.00
2018-12-21T01:45:18.084Z,0.00
2018-12-21T01:46:18.061Z,0.00
2018-12-21T01:47:18.045Z,0.00
2018-12-21T01:48:18.020Z,0.00
2018-12-21T01:49:18.001Z,0.00
2018-12-21T01:50:17.973Z,0.00
2018-12-21T01:51:17.957Z,0.00
2018-12-21T01:52:17.934Z,0.00
2018-12-21T01:53:17.912Z,0.00
2018-12-21T01:54:17.889Z,0.00
2018-12-21T01:55:17.867Z,0.00
2018-12-21T01:56:17.842Z,0.00
2018-12-21T01:57:17.813Z,0.00
2018-12-21T01:58:17.796Z,0.00
2018-12-21T01:59:17.767Z,0.00
2018-12-21T02:00:17.745Z,0.00
2018-12-21T02:01:17.722Z,0.00
2018-12-21T02:02:17.700Z,0.00
2018-12-21T02:03:17.678Z,0.00
2018-12-21T02:04:17.655Z,0.00
2018-12-21T02:05:17.640Z,0.00
2018-12-21T02:06:17.612Z,0.00
2018-12-21T02:07:17.593Z,0.00
2018-12-21T02:08:17.593Z,0.00
2018-12-21T02:09:17.548Z,0.00
2018-12-21T02:10:17.522Z,0.00
2018-12-21T02:11:17.511Z,0.00
2018-12-21T02:12:17.521Z,0.00
2018-12-21T02:13:17.452Z,0.00
2018-12-21T02:14:17.430Z,0.00
2018-12-21T02:15:17.406Z,0.00
2018-12-21T02:16:17.391Z,0.00
2018-12-21T02:17:17.365Z,0.00
2018-12-21T02:18:17.340Z,0.00
2018-12-21T02:19:17.317Z,0.00
2018-12-21T02:20:17.295Z,0.00
2018-12-21T02:21:17.274Z,0.00
2018-12-21T02:22:17.250Z,0.00
2018-12-21T02:23:17.232Z,0.00
2018-12-21T02:24:17.206Z,0.00
2018-12-21T02:25:17.190Z,0.00
2018-12-21T02:26:17.160Z,0.00
2018-12-21T02:27:17.134Z,0.00
2018-12-21T02:28:17.119Z,0.00
2018-12-21T02:29:17.089Z,0.00
2018-12-21T02:30:17.084Z,0.00
2018-12-21T02:31:17.047Z,0.00
2018-12-21T02:32:17.023Z,0.00
2018-12-21T02:33:17.016Z,0.00
2018-12-21T02:34:16.978Z,0.00
2018-12-21T02:35:16.975Z,0.00
2018-12-21T02:36:16.943Z,0.00
2018-12-21T02:37:16.921Z,0.00
2018-12-21T02:38:16.888Z,0.00
2018-12-21T02:39:16.879Z,0.00
2018-12-21T02:40:16.850Z,0.00
2018-12-21T02:41:16.830Z,0.00
2018-12-21T02:42:16.806Z,0.00
2018-12-21T02:43:16.777Z,0.00
2018-12-21T02:44:16.763Z,0.00
2018-12-21T02:45:16.732Z,0.00
2018-12-21T02:46:16.709Z,0.00
2018-12-21T02:47:16.691Z,0.00
2018-12-21T02:48:16.660Z,0.00
2018-12-21T02:49:16.644Z,0.00
2018-12-21T02:50:16.628Z,0.00
2018-12-21T02:51:16.604Z,0.00
2018-12-21T02:52:16.575Z,0.00
2018-12-21T02:53:16.550Z,0.00
2018-12-21T02:54:16.538Z,0.00
2018-12-21T02:55:16.502Z,0.00
2018-12-21T02:56:16.481Z,0.00
2018-12-21T02:57:16.464Z,0.00
2018-12-21T02:58:16.448Z,0.00
2018-12-21T02:59:16.410Z,0.00
2018-12-21T03:00:16.389Z,0.00
2018-12-21T03:01:16.373Z,0.00
2018-12-21T03:02:16.349Z,0.00
2018-12-21T03:03:16.324Z,0.00
2018-12-21T03:04:16.305Z,0.00
2018-12-21T03:05:16.275Z,0.00
2018-12-21T03:06:16.260Z,0.00
2018-12-21T03:07:16.232Z,0.00
2018-12-21T03:08:16.211Z,0.00
2018-12-21T03:09:16.192Z,0.00
2018-12-21T03:10:16.167Z,0.00
2018-12-21T03:11:16.146Z,0.00
2018-12-21T03:12:16.122Z,0.00
2018-12-21T03:13:16.094Z,0.00
2018-12-21T03:14:16.071Z,0.00
2018-12-21T03:15:16.057Z,0.00
2018-12-21T03:16:16.026Z,0.00
2018-12-21T03:17:16.008Z,0.00
2018-12-21T03:18:15.981Z,0.00
2018-12-21T03:19:15.957Z,0.00
2018-12-21T03:20:15.948Z,0.00
2018-12-21T03:21:15.911Z,0.00
2018-12-21T03:22:15.896Z,0.00
2018-12-21T03:23:15.865Z,0.00
2018-12-21T03:24:15.844Z,0.00
2018-12-21T03:25:15.823Z,0.00
2018-12-21T03:26:15.797Z,0.00
2018-12-21T03:27:15.776Z,0.00
2018-12-21T03:28:15.753Z,0.00
2018-12-21T03:29:15.732Z,0.00
2018-12-21T03:30:15.709Z,0.00
2018-12-21T03:31:15.690Z,0.00
2018-12-21T03:32:15.664Z,0.00
2018-12-21T03:33:15.639Z,0.00
2018-12-21T03:34:15.624Z,0.00
2018-12-21T03:35:15.595Z,0.00
2018-12-21T03:36:15.581Z,0.00
2018-12-21T03:37:15.549Z,0.00
2018-12-21T03:38:15.605Z,0.00
2018-12-21T03:39:15.513Z,0.00
2018-12-21T03:40:15.486Z,0.00
2018-12-21T03:41:15.459Z,0.00
2018-12-21T03:42:15.440Z,0.00
2018-12-21T03:43:15.410Z,0.00
2018-12-21T03:44:15.388Z,0.00
2018-12-21T03:45:15.375Z,0.00
2018-12-21T03:46:15.343Z,0.00
2018-12-21T03:47:15.328Z,0.00
2018-12-21T03:48:15.299Z,0.00
2018-12-21T03:49:15.283Z,0.00
2018-12-21T03:50:15.251Z,0.00
2018-12-21T03:51:15.245Z,0.00
2018-12-21T03:52:23.981Z,0.00
2018-12-21T03:53:15.190Z,0.00
2018-12-21T03:54:15.162Z,0.00
2018-12-21T03:55:15.156Z,0.00
2018-12-21T03:56:15.117Z,0.00
2018-12-21T03:57:15.095Z,0.00
2018-12-21T03:58:15.074Z,0.00
2018-12-21T03:59:15.050Z,0.00
2018-12-21T04:00:15.031Z,0.00
2018-12-21T04:01:15.010Z,0.00
2018-12-21T04:02:14.982Z,0.00
2018-12-21T04:03:14.956Z,0.00
2018-12-21T04:04:14.941Z,0.00
2018-12-21T04:05:14.912Z,0.00
2018-12-21T04:06:14.892Z,0.00
2018-12-21T04:07:14.867Z,0.00
2018-12-21T04:08:14.848Z,0.00
2018-12-21T04:09:14.833Z,0.00
2018-12-21T04:10:14.812Z,0.00
2018-12-21T04:11:14.783Z,0.00
2018-12-21T04:12:14.755Z,0.00
2018-12-21T04:13:14.733Z,0.00
2018-12-21T04:14:14.717Z,0.00
2018-12-21T04:15:14.693Z,0.00
2018-12-21T04:16:14.664Z,0.00
2018-12-21T04:17:14.643Z,0.00
2018-12-21T04:18:14.621Z,0.00
2018-12-21T04:19:14.601Z,0.00
2018-12-21T04:20:14.582Z,0.00
2018-12-21T04:21:14.554Z,0.00
2018-12-21T04:22:14.530Z,0.00
2018-12-21T04:23:14.507Z,0.00
2018-12-21T04:24:14.495Z,0.00
2018-12-21T04:25:14.463Z,0.00
2018-12-21T04:26:14.447Z,0.00
2018-12-21T04:27:14.419Z,0.00
2018-12-21T04:28:14.401Z,0.00
2018-12-21T04:29:14.379Z,0.00
2018-12-21T04:30:14.351Z,0.00
2018-12-21T04:31:14.326Z,0.00
2018-12-21T04:32:14.305Z,0.00
2018-12-21T04:33:14.284Z,0.00
2018-12-21T04:34:14.264Z,0.00
2018-12-21T04:35:14.239Z,0.00
2018-12-21T04:36:14.215Z,0.00
2018-12-21T04:37:14.200Z,0.00
2018-12-21T04:38:14.173Z,0.00
2018-12-21T04:39:14.147Z,0.00
2018-12-21T04:40:14.131Z,0.00
2018-12-21T04:41:14.108Z,0.00
2018-12-21T04:42:14.081Z,0.00
2018-12-21T04:43:14.061Z,0.00
2018-12-21T04:44:14.042Z,0.00
2018-12-21T04:45:14.013Z,0.00
2018-12-21T04:46:13.999Z,0.00
2018-12-21T04:47:13.971Z,0.00
2018-12-21T04:48:13.983Z,0.00
2018-12-21T04:49:13.926Z,0.00
2018-12-21T04:50:13.910Z,0.00
2018-12-21T04:51:13.878Z,0.00
2018-12-21T04:52:13.853Z,0.00
2018-12-21T04:53:13.846Z,0.00
2018-12-21T04:54:13.818Z,0.00
2018-12-21T04:55:13.787Z,0.00
2018-12-21T04:56:13.908Z,0.00
2018-12-21T04:57:13.745Z,0.00
2018-12-21T04:58:13.722Z,0.00
2018-12-21T04:59:13.698Z,0.00
2018-12-21T05:00:13.740Z,0.00
2018-12-21T05:01:13.652Z,0.00
2018-12-21T05:02:13.641Z,0.00
2018-12-21T05:03:13.610Z,0.00
2018-12-21T05:04:19.745Z,0.00
2018-12-21T05:05:13.570Z,0.00
2018-12-21T05:06:13.540Z,0.00
2018-12-21T05:07:13.612Z,0.00
2018-12-21T05:08:13.502Z,0.00
2018-12-21T05:09:13.473Z,0.00
2018-12-21T05:10:13.451Z,0.00
2018-12-21T05:11:13.434Z,0.00
2018-12-21T05:12:13.404Z,0.00
2018-12-21T05:13:13.388Z,0.00
2018-12-21T05:14:13.367Z,0.00
2018-12-21T05:15:13.335Z,0.00
2018-12-21T05:16:13.311Z,0.00
2018-12-21T05:17:13.296Z,0.00
2018-12-21T05:18:13.270Z,0.00
2018-12-21T05:19:13.251Z,0.00
2018-12-21T05:20:13.219Z,0.00
2018-12-21T05:21:13.200Z,0.00
2018-12-21T05:22:13.178Z,0.00
2018-12-21T05:23:13.159Z,0.00
2018-12-21T05:24:13.136Z,0.00
2018-12-21T05:25:13.114Z,0.00
2018-12-21T05:26:13.085Z,0.00
2018-12-21T05:27:13.060Z,0.00
2018-12-21T05:28:13.044Z,0.00
2018-12-21T05:29:13.016Z,0.00
2018-12-21T05:30:13.001Z,0.00
2018-12-21T05:31:12.977Z,0.00
2018-12-21T05:32:12.950Z,0.00
2018-12-21T05:33:12.928Z,0.00
2018-12-21T05:34:12.908Z,0.00
2018-12-21T05:35:12.883Z,0.00
2018-12-21T05:36:12.922Z,0.00
2018-12-21T05:37:12.845Z,0.00
2018-12-21T05:38:12.820Z,0.00
2018-12-21T05:39:12.791Z,0.00
2018-12-21T05:40:12.892Z,0.00
2018-12-21T05:41:12.791Z,0.00
2018-12-21T05:42:12.738Z,0.00
2018-12-21T05:43:12.724Z,0.00
2018-12-21T05:44:12.700Z,0.00
2018-12-21T05:45:12.664Z,0.00
2018-12-21T05:46:12.654Z,0.00
2018-12-21T05:47:12.616Z,0.00
2018-12-21T05:48:12.599Z,0.00
2018-12-21T05:49:12.582Z,0.00
2018-12-21T05:50:12.577Z,0.00
2018-12-21T05:51:12.519Z,0.00
2018-12-21T05:52:12.512Z,0.00
2018-12-21T05:53:12.525Z,0.00
2018-12-21T05:54:12.458Z,0.00
2018-12-21T05:55:12.441Z,0.00
2018-12-21T05:56:12.423Z,0.00
2018-12-21T05:57:12.391Z,0.00
2018-12-21T05:58:12.374Z,0.00
2018-12-21T05:59:12.351Z,0.00
2018-12-21T06:00:12.323Z,0.00
2018-12-21T06:01:12.290Z,0.00
2018-12-21T06:02:12.307Z,0.00
2018-12-21T06:03:12.265Z,0.00
2018-12-21T06:04:12.224Z,0.00
2018-12-21T06:05:12.211Z,0.00
2018-12-21T06:06:12.185Z,0.00
2018-12-21T06:07:12.159Z,0.00
2018-12-21T06:08:12.163Z,0.00
2018-12-21T06:09:12.117Z,0.00
2018-12-21T06:10:12.118Z,0.00
2018-12-21T06:11:12.074Z,0.00
2018-12-21T06:12:12.068Z,0.00
2018-12-21T06:13:12.022Z,0.00
2018-12-21T06:14:12.032Z,0.00
2018-12-21T06:15:12.001Z,0.00
2018-12-21T06:16:11.977Z,0.00
2018-12-21T06:17:11.941Z,0.00
2018-12-21T06:18:11.912Z,0.00
2018-12-21T06:19:12.383Z,0.00
2018-12-21T06:20:11.907Z,0.00
2018-12-21T06:21:11.852Z,0.00
2018-12-21T06:22:11.815Z,0.00
2018-12-21T06:23:11.802Z,0.00
2018-12-21T06:24:11.771Z,0.00
2018-12-21T06:25:11.749Z,0.00
2018-12-21T06:26:11.746Z,0.00
2018-12-21T06:27:11.700Z,0.00
2018-12-21T06:28:11.678Z,0.00
2018-12-21T06:29:11.655Z,0.00
2018-12-21T06:30:11.649Z,0.00
2018-12-21T06:31:11.620Z,0.00
2018-12-21T06:32:11.587Z,0.00
2018-12-21T06:33:11.563Z,0.00
2018-12-21T06:34:11.544Z,0.00
2018-12-21T06:35:11.505Z,0.00
2018-12-21T06:36:11.487Z,0.00
2018-12-21T06:37:11.474Z,0.00
2018-12-21T06:38:11.445Z,0.00
2018-12-21T06:39:11.415Z,0.00
2018-12-21T06:40:11.393Z,0.00
2018-12-21T06:41:11.371Z,0.00
2018-12-21T06:42:11.349Z,0.00
2018-12-21T06:43:11.323Z,0.00
2018-12-21T06:44:11.327Z,0.00
2018-12-21T06:45:11.288Z,0.00
2018-12-21T06:46:14.262Z,0.00
2018-12-21T06:47:11.237Z,0.00
2018-12-21T06:48:11.208Z,0.00
2018-12-21T06:49:11.193Z,0.00
2018-12-21T06:50:11.164Z,0.00
2018-12-21T06:51:11.145Z,0.00
2018-12-21T06:52:11.116Z,0.00
2018-12-21T06:53:17.931Z,0.00
2018-12-21T06:54:11.074Z,4.00
2018-12-21T06:55:11.053Z,4.00
2018-12-21T06:56:11.026Z,4.00
2018-12-21T06:57:11.005Z,4.00
2018-12-21T06:58:10.986Z,4.00
2018-12-21T06:59:10.954Z,0.00
2018-12-21T07:00:10.935Z,4.00
2018-12-21T07:01:10.915Z,8.00
2018-12-21T07:02:10.886Z,4.00
2018-12-21T07:03:17.033Z,8.00
2018-12-21T07:04:10.845Z,8.00
2018-12-21T07:05:10.816Z,8.00
2018-12-21T07:06:10.797Z,8.00
2018-12-21T07:07:10.769Z,8.00
2018-12-21T07:08:10.747Z,12.00
2018-12-21T07:09:10.725Z,12.00
2018-12-21T07:10:10.702Z,16.00
2018-12-21T07:11:10.686Z,16.00
2018-12-21T07:12:10.664Z,24.00
2018-12-21T07:13:10.638Z,24.00
2018-12-21T07:14:10.611Z,32.00
2018-12-21T07:15:10.595Z,36.00
2018-12-21T07:16:10.570Z,36.00
2018-12-21T07:17:10.543Z,40.00
2018-12-21T07:18:10.518Z,48.00
2018-12-21T07:19:10.493Z,52.00
2018-12-21T07:20:10.474Z,52.00
2018-12-21T07:21:10.451Z,52.00
2018-12-21T07:22:10.432Z,60.00
2018-12-21T07:23:10.401Z,72.00
2018-12-21T07:24:10.385Z,92.00
2018-12-21T07:25:10.356Z,96.00
2018-12-21T07:26:10.341Z,128.00
2018-12-21T07:27:10.311Z,124.00
2018-12-21T07:28:10.293Z,132.00
2018-12-21T07:29:10.263Z,132.00
2018-12-21T07:30:10.242Z,124.00
2018-12-21T07:31:10.238Z,136.00
2018-12-21T07:32:10.195Z,140.00
2018-12-21T07:33:10.173Z,160.00
2018-12-21T07:34:10.157Z,188.00
2018-12-21T07:35:10.130Z,236.00
2018-12-21T07:36:10.116Z,276.00
2018-12-21T07:37:10.081Z,244.00
2018-12-21T07:38:10.064Z,240.00
2018-12-21T07:39:10.048Z,252.00
2018-12-21T07:40:10.021Z,272.00
2018-12-21T07:41:10.006Z,288.00
2018-12-21T07:42:09.967Z,300.00
2018-12-21T07:43:09.948Z,348.00
2018-12-21T07:44:09.923Z,396.00
2018-12-21T07:45:09.907Z,440.00
2018-12-21T07:46:09.898Z,412.00
2018-12-21T07:47:09.857Z,408.00
2018-12-21T07:48:09.837Z,420.00
2018-12-21T07:49:09.820Z,588.00
2018-12-21T07:50:09.852Z,644.00
2018-12-21T07:51:09.766Z,656.00
2018-12-21T07:52:09.737Z,720.00
2018-12-21T07:53:09.737Z,704.00
2018-12-21T07:54:09.703Z,664.00
2018-12-21T07:55:09.677Z,568.00
2018-12-21T07:56:09.647Z,668.00
2018-12-21T07:57:09.628Z,708.00
2018-12-21T07:58:09.617Z,700.00
2018-12-21T07:59:09.580Z,676.00
2018-12-21T08:00:09.554Z,688.00
2018-12-21T08:01:09.541Z,660.00
2018-12-21T08:02:09.516Z,676.00
2018-12-21T08:03:09.506Z,596.00
2018-12-21T08:04:09.461Z,664.00
2018-12-21T08:05:09.446Z,676.00
2018-12-21T08:06:09.421Z,684.00
2018-12-21T08:07:09.399Z,556.00
2018-12-21T08:08:09.379Z,696.00
2018-12-21T08:09:09.351Z,708.00
2018-12-21T08:10:09.361Z,708.00
2018-12-21T08:11:09.317Z,736.00
2018-12-21T08:12:09.297Z,824.00
2018-12-21T08:13:09.265Z,744.00
2018-12-21T08:14:09.253Z,792.00
2018-12-21T08:15:09.214Z,660.00
2018-12-21T08:16:09.198Z,572.00
2018-12-21T08:17:09.175Z,600.00
2018-12-21T08:18:09.164Z,724.00
2018-12-21T08:19:09.127Z,660.00
2018-12-21T08:20:09.115Z,592.00
2018-12-21T08:21:09.084Z,716.00
2018-12-21T08:22:09.164Z,732.00
2018-12-21T08:23:09.059Z,656.00
2018-12-21T08:24:09.025Z,848.00
2018-12-21T08:25:08.994Z,760.00
2018-12-21T08:26:08.964Z,684.00
2018-12-21T08:27:08.942Z,760.00
2018-12-21T08:28:08.917Z,908.00
2018-12-21T08:29:08.899Z,840.00
2018-12-21T08:30:08.875Z,836.00
2018-12-21T08:31:08.849Z,852.00
2018-12-21T08:32:08.835Z,848.00
2018-12-21T08:33:08.807Z,832.00
2018-12-21T08:34:08.782Z,916.00
2018-12-21T08:35:08.768Z,816.00
2018-12-21T08:36:08.744Z,824.00
2018-12-21T08:37:08.722Z,836.00
2018-12-21T08:38:08.699Z,920.00
2018-12-21T08:39:08.674Z,948.00
2018-12-21T08:40:08.648Z,988.00
2018-12-21T08:41:08.629Z,852.00
2018-12-21T08:42:08.608Z,816.00
2018-12-21T08:43:08.579Z,708.00
2018-12-21T08:44:08.564Z,692.00
2018-12-21T08:45:08.541Z,632.00
2018-12-21T08:46:08.514Z,664.00
2018-12-21T08:47:08.486Z,664.00
2018-12-21T08:48:08.474Z,756.00
2018-12-21T08:49:08.448Z,648.00
2018-12-21T08:50:08.426Z,712.00
2018-12-21T08:51:08.398Z,672.00
2018-12-21T08:52:08.380Z,692.00
2018-12-21T08:53:08.350Z,792.00
2018-12-21T08:54:08.321Z,716.00
2018-12-21T08:55:08.309Z,668.00
2018-12-21T08:56:08.283Z,592.00
2018-12-21T08:57:08.292Z,668.00
2018-12-21T08:58:08.244Z,688.00
2018-12-21T08:59:08.217Z,724.00
2018-12-21T09:00:08.198Z,844.00
2018-12-21T09:01:08.176Z,1084.00
2018-12-21T09:02:08.179Z,1028.00
2018-12-21T09:03:08.125Z,1164.00
2018-12-21T09:04:08.102Z,892.00
2018-12-21T09:05:08.087Z,972.00
2018-12-21T09:06:08.060Z,984.00
2018-12-21T09:07:08.038Z,1084.00
2018-12-21T09:08:08.019Z,1208.00
2018-12-21T09:09:07.994Z,1460.00
2018-12-21T09:10:07.966Z,1656.00
2018-12-21T09:11:07.947Z,1624.00
2018-12-21T09:12:07.931Z,1380.00
2018-12-21T09:13:07.897Z,1228.00
2018-12-21T09:14:07.874Z,1080.00
2018-12-21T09:15:07.854Z,1068.00
2018-12-21T09:16:07.829Z,1076.00
2018-12-21T09:17:07.805Z,1248.00
2018-12-21T09:18:07.783Z,1296.00
2018-12-21T09:19:07.764Z,1424.00
2018-12-21T09:20:07.760Z,1656.00
2018-12-21T09:21:07.715Z,1800.00
2018-12-21T09:22:07.693Z,1792.00
2018-12-21T09:23:07.668Z,1904.00
2018-12-21T09:24:07.655Z,2028.00
2018-12-21T09:25:07.638Z,2144.00
2018-12-21T09:26:07.609Z,2212.00
2018-12-21T09:27:07.577Z,2052.00
2018-12-21T09:28:07.561Z,2196.00
2018-12-21T09:29:07.540Z,2192.00
2018-12-21T09:30:07.517Z,2344.00
2018-12-21T09:31:07.487Z,2320.00
2018-12-21T09:32:07.465Z,2360.00
2018-12-21T09:33:07.455Z,2400.00
2018-12-21T09:34:07.420Z,2444.00
2018-12-21T09:35:07.397Z,2420.00
2018-12-21T09:36:07.383Z,2656.00
2018-12-21T09:37:07.353Z,2696.00
2018-12-21T09:38:07.330Z,2756.00
2018-12-21T09:39:07.328Z,2512.00
2018-12-21T09:40:07.298Z,2532.00
2018-12-21T09:41:07.267Z,2356.00
2018-12-21T09:42:07.243Z,2228.00
2018-12-21T09:43:07.215Z,2364.00
2018-12-21T09:44:07.199Z,2576.00
2018-12-21T09:45:07.172Z,2668.00
2018-12-21T09:46:07.151Z,2276.00
2018-12-21T09:47:07.125Z,2060.00
2018-12-21T09:48:07.109Z,1840.00
2018-12-21T09:49:07.091Z,1832.00
2018-12-21T09:50:07.061Z,1936.00
2018-12-21T09:51:07.039Z,1944.00
2018-12-21T09:52:07.019Z,1828.00
2018-12-21T09:53:06.999Z,1740.00
2018-12-21T09:54:10.003Z,1816.00
2018-12-21T09:55:06.951Z,1872.00
2018-12-21T09:56:06.925Z,1824.00
2018-12-21T09:57:06.906Z,1876.00
2018-12-21T09:58:06.889Z,1964.00
2018-12-21T09:59:08.066Z,2156.00
2018-12-21T10:00:06.832Z,2040.00
2018-12-21T10:01:06.814Z,2028.00
2018-12-21T10:02:06.794Z,1824.00
2018-12-21T10:03:06.766Z,1708.00
2018-12-21T10:04:06.776Z,1940.00
2018-12-21T10:05:06.730Z,2220.00
2018-12-21T10:06:06.713Z,2252.00
2018-12-21T10:07:06.676Z,2656.00
2018-12-21T10:08:06.661Z,2488.00
2018-12-21T10:09:06.637Z,2352.00
2018-12-21T10:10:06.613Z,2284.00
2018-12-21T10:11:06.603Z,2888.00
2018-12-21T10:12:06.568Z,2668.00
2018-12-21T10:13:08.569Z,3052.00
2018-12-21T10:14:06.517Z,3004.00
2018-12-21T10:15:06.501Z,2920.00
2018-12-21T10:16:06.472Z,2896.00
2018-12-21T10:17:06.449Z,2764.00
2018-12-21T10:18:06.459Z,3296.00
2018-12-21T10:19:06.408Z,2828.00
2018-12-21T10:20:06.384Z,2912.00
2018-12-21T10:21:06.382Z,4260.00
2018-12-21T10:22:06.435Z,4792.00
2018-12-21T10:23:06.354Z,4460.00
2018-12-21T10:24:06.371Z,3560.00
2018-12-21T10:25:06.334Z,4208.00
2018-12-21T10:26:06.254Z,4680.00
2018-12-21T10:27:06.242Z,3976.00
2018-12-21T10:28:06.215Z,3324.00
2018-12-21T10:29:06.189Z,2952.00
2018-12-21T10:30:06.169Z,2728.00
2018-12-21T10:31:06.144Z,3124.00
2018-12-21T10:32:06.131Z,2784.00
2018-12-21T10:33:06.102Z,3088.00
2018-12-21T10:34:06.085Z,5256.00
2018-12-21T10:35:06.060Z,5500.00
2018-12-21T10:36:06.034Z,5136.00
2018-12-21T10:37:06.018Z,4908.00
2018-12-21T10:38:05.990Z,4736.00
2018-12-21T10:39:05.988Z,3820.00
2018-12-21T10:40:05.946Z,4532.00
2018-12-21T10:41:05.927Z,4692.00
2018-12-21T10:42:05.919Z,4328.00
2018-12-21T10:43:05.872Z,3952.00
2018-12-21T10:44:05.859Z,4900.00
2018-12-21T10:45:05.842Z,4676.00
2018-12-21T10:46:05.813Z,5328.00
2018-12-21T10:47:05.814Z,5944.00
2018-12-21T10:48:05.769Z,7876.00
2018-12-21T10:49:05.748Z,6972.00
2018-12-21T10:50:05.727Z,4700.00
2018-12-21T10:51:05.745Z,4884.00
2018-12-21T10:52:05.721Z,5152.00
2018-12-21T10:53:05.673Z,5092.00
2018-12-21T10:54:05.637Z,4060.00
2018-12-21T10:55:05.644Z,4636.00
2018-12-21T10:56:05.625Z,4660.00
2018-12-21T10:57:05.581Z,2936.00
2018-12-21T10:58:05.616Z,3172.00
2018-12-21T10:59:05.568Z,2444.00
2018-12-21T11:00:05.730Z,3472.00
2018-12-21T11:01:05.559Z,3140.00
2018-12-21T11:02:05.515Z,3576.00
2018-12-21T11:03:05.453Z,2936.00
2018-12-21T11:04:05.428Z,3556.00
2018-12-21T11:05:05.434Z,4828.00
2018-12-21T11:06:05.395Z,4552.00
2018-12-21T11:07:05.403Z,4176.00
2018-12-21T11:08:05.350Z,3868.00
2018-12-21T11:09:05.315Z,4652.00
2018-12-21T11:10:05.331Z,4368.00
2018-12-21T11:11:05.289Z,3864.00
2018-12-21T11:12:05.309Z,4400.00
2018-12-21T11:13:05.218Z,4608.00
2018-12-21T11:14:05.205Z,4056.00
2018-12-21T11:15:05.213Z,4660.00
2018-12-21T11:16:05.155Z,4864.00
2018-12-21T11:17:05.179Z,6456.00
2018-12-21T11:18:05.141Z,6332.00
2018-12-21T11:19:05.103Z,6108.00
2018-12-21T11:20:05.100Z,6304.00
2018-12-21T11:21:05.065Z,5912.00
2018-12-21T11:22:05.068Z,5500.00
2018-12-21T11:23:05.007Z,4140.00
2018-12-21T11:24:04.984Z,4248.00
2018-12-21T11:25:04.967Z,4484.00
2018-12-21T11:26:04.939Z,5256.00
2018-12-21T11:27:04.936Z,6256.00
2018-12-21T11:28:04.911Z,5068.00
2018-12-21T11:29:04.885Z,4240.00
2018-12-21T11:30:04.856Z,5116.00
2018-12-21T11:31:04.847Z,6004.00
2018-12-21T11:32:04.814Z,5516.00
2018-12-21T11:33:04.789Z,4816.00
2018-12-21T11:34:04.767Z,5036.00
2018-12-21T11:35:04.777Z,6320.00
2018-12-21T11:36:04.748Z,6596.00
2018-12-21T11:37:04.706Z,6232.00
2018-12-21T11:38:04.828Z,5456.00
2018-12-21T11:39:04.674Z,5608.00
2018-12-21T11:40:04.643Z,6612.00
2018-12-21T11:41:04.636Z,8200.00
2018-12-21T11:42:04.632Z,7816.00
2018-12-21T11:43:04.574Z,6648.00
2018-12-21T11:44:04.558Z,6444.00
2018-12-21T11:45:04.541Z,7384.00
2018-12-21T11:46:04.519Z,6960.00
2018-12-21T11:47:04.493Z,6500.00
2018-12-21T11:48:04.491Z,6828.00
2018-12-21T11:49:04.453Z,6284.00
2018-12-21T11:50:04.442Z,6928.00
2018-12-21T11:51:04.414Z,7412.00
2018-12-21T11:52:04.392Z,6876.00
2018-12-21T11:53:04.416Z,7656.00
2018-12-21T11:54:04.346Z,6364.00
2018-12-21T11:55:04.363Z,6512.00
2018-12-21T11:56:04.334Z,5704.00
2018-12-21T11:57:04.299Z,6548.00
2018-12-21T11:58:04.270Z,6608.00
2018-12-21T11:59:04.245Z,7232.00
2018-12-21T12:00:04.254Z,7656.00
2018-12-21T12:01:04.200Z,6824.00
2018-12-21T12:02:04.187Z,6260.00
2018-12-21T12:03:04.159Z,5876.00
2018-12-21T12:04:04.171Z,6604.00
2018-12-21T12:05:04.149Z,6788.00
2018-12-21T12:06:04.104Z,6828.00
2018-12-21T12:07:04.076Z,6880.00
2018-12-21T12:08:04.053Z,6380.00
2018-12-21T12:09:06.324Z,5492.00
2018-12-21T12:10:04.021Z,4524.00
2018-12-21T12:11:03.989Z,3292.00
2018-12-21T12:12:03.985Z,4216.00
2018-12-21T12:13:03.944Z,4284.00
2018-12-21T12:14:03.970Z,4108.00
2018-12-21T12:15:03.909Z,4900.00
2018-12-21T12:16:03.884Z,4568.00
2018-12-21T12:17:03.876Z,4608.00
2018-12-21T12:18:03.845Z,4976.00
2018-12-21T12:19:03.829Z,4140.00
2018-12-21T12:20:03.805Z,4192.00
2018-12-21T12:21:03.779Z,4680.00
2018-12-21T12:22:03.802Z,4852.00
2018-12-21T12:23:03.740Z,4548.00
2018-12-21T12:24:03.737Z,4528.00
2018-12-21T12:25:03.712Z,4812.00
2018-12-21T12:26:03.673Z,5332.00
2018-12-21T12:27:03.654Z,4976.00
2018-12-21T12:28:03.635Z,5236.00
2018-12-21T12:29:03.644Z,3888.00
2018-12-21T12:30:03.616Z,5364.00
2018-12-21T12:31:03.572Z,4672.00
2018-12-21T12:32:03.553Z,4528.00
2018-12-21T12:33:03.553Z,4216.00
2018-12-21T12:34:03.515Z,2588.00
2018-12-21T12:35:03.496Z,2864.00
2018-12-21T12:36:03.505Z,2640.00
2018-12-21T12:37:03.463Z,2080.00
2018-12-21T12:38:03.438Z,2552.00
2018-12-21T12:39:03.407Z,2596.00
2018-12-21T12:40:03.392Z,2736.00
2018-12-21T12:41:06.753Z,1876.00
2018-12-21T12:42:03.824Z,2660.00
2018-12-21T12:43:03.341Z,2736.00
2018-12-21T12:44:03.317Z,3336.00
2018-12-21T12:45:03.283Z,3040.00
2018-12-21T12:46:03.302Z,2896.00
2018-12-21T12:47:03.233Z,2916.00
2018-12-21T12:48:03.231Z,2440.00